sensor_id;sensor_type;location;lat;lon;timestamp;temperature;humidity
12015;DHT22;6066;48.138;16.402;2023-07-22T00:01:24;19.90;99.90
12015;DHT22;6066;48.138;16.402;2023-07-22T00:03:51;19.90;99.90
12015;DHT22;6066;48.138;16.402;2023-07-22T00:06:18;19.90;99.90
12015;DHT22;6066;48.138;16.402;2023-07-22T00:08:45;20.00;99.90
12015;DHT22;6066;48.138;16.402;2023-07-22T00:11:12;20.00;99.90
12015;DHT22;6066;48.138;16.402;2023-07-22T00:13:39;19.90;99.90
12015;DHT22;6066;48.138;16.402;2023-07-22T00:16:05;19.90;99.90
12015;DHT22;6066;48.138;16.402;2023-07-22T00:18:34;19.90;99.90
12015;DHT22;6066;48.138;16.402;2023-07-22T00:21:01;20.00;99.90
12015;DHT22;6066;48.138;16.402;2023-07-22T00:23:28;20.00;99.90
12015;DHT22;6066;48.138;16.402;2023-07-22T00:25:55;20.00;99.90
12015;DHT22;6066;48.138;16.402;2023-07-22T00:28:22;20.00;99.90
12015;DHT22;6066;48.138;16.402;2023-07-22T00:30:48;20.00;99.90
12015;DHT22;6066;48.138;16.402;2023-07-22T00:33:15;20.00;99.90
12015;DHT22;6066;48.138;16.402;2023-07-22T00:35:43;20.00;99.90
12015;DHT22;6066;48.138;16.402;2023-07-22T00:38:13;20.00;99.90
12015;DHT22;6066;48.138;16.402;2023-07-22T00:40:40;20.00;99.90
12015;DHT22;6066;48.138;16.402;2023-07-22T00:43:06;20.00;99.90
12015;DHT22;6066;48.138;16.402;2023-07-22T00:45:33;19.90;99.90
12015;DHT22;6066;48.138;16.402;2023-07-22T00:48:00;19.90;99.90
12015;DHT22;6066;48.138;16.402;2023-07-22T00:50:27;19.90;99.90
12015;DHT22;6066;48.138;16.402;2023-07-22T00:52:55;19.90;99.90
12015;DHT22;6066;48.138;16.402;2023-07-22T00:55:21;19.90;99.90
12015;DHT22;6066;48.138;16.402;2023-07-22T00:57:49;19.90;99.90
12015;DHT22;6066;48.138;16.402;2023-07-22T01:00:15;19.90;99.90
12015;DHT22;6066;48.138;16.402;2023-07-22T01:02:42;19.90;99.90
12015;DHT22;6066;48.138;16.402;2023-07-22T01:05:10;19.90;99.90
12015;DHT22;6066;48.138;16.402;2023-07-22T01:07:37;19.90;99.90
12015;DHT22;6066;48.138;16.402;2023-07-22T01:10:06;19.90;99.90
12015;DHT22;6066;48.138;16.402;2023-07-22T01:12:35;19.80;99.90
12015;DHT22;6066;48.138;16.402;2023-07-22T01:15:01;19.80;99.90
12015;DHT22;6066;48.138;16.402;2023-07-22T01:17:28;19.80;99.90
12015;DHT22;6066;48.138;16.402;2023-07-22T01:19:55;19.80;99.90
12015;DHT22;6066;48.138;16.402;2023-07-22T01:22:22;19.80;99.90
12015;DHT22;6066;48.138;16.402;2023-07-22T01:24:51;19.70;99.90
12015;DHT22;6066;48.138;16.402;2023-07-22T01:27:18;19.70;99.90
12015;DHT22;6066;48.138;16.402;2023-07-22T01:29:45;19.70;99.90
12015;DHT22;6066;48.138;16.402;2023-07-22T01:32:11;19.70;99.90
12015;DHT22;6066;48.138;16.402;2023-07-22T01:34:39;19.60;99.90
12015;DHT22;6066;48.138;16.402;2023-07-22T01:37:05;19.60;99.90
12015;DHT22;6066;48.138;16.402;2023-07-22T01:39:32;19.60;99.90
12015;DHT22;6066;48.138;16.402;2023-07-22T01:42:00;19.60;99.90
12015;DHT22;6066;48.138;16.402;2023-07-22T01:44:27;19.60;99.90
12015;DHT22;6066;48.138;16.402;2023-07-22T01:46:54;19.50;99.90
12015;DHT22;6066;48.138;16.402;2023-07-22T01:49:20;19.50;99.90
12015;DHT22;6066;48.138;16.402;2023-07-22T01:51:49;19.50;99.90
12015;DHT22;6066;48.138;16.402;2023-07-22T01:54:16;19.50;99.90
12015;DHT22;6066;48.138;16.402;2023-07-22T01:56:43;19.60;99.90
12015;DHT22;6066;48.138;16.402;2023-07-22T01:59:11;19.60;99.90
12015;DHT22;6066;48.138;16.402;2023-07-22T02:01:37;19.50;99.90
12015;DHT22;6066;48.138;16.402;2023-07-22T02:04:05;19.60;99.90
12015;DHT22;6066;48.138;16.402;2023-07-22T02:06:32;19.60;99.90
12015;DHT22;6066;48.138;16.402;2023-07-22T02:09:00;19.50;99.90
12015;DHT22;6066;48.138;16.402;2023-07-22T02:11:33;19.50;99.90
12015;DHT22;6066;48.138;16.402;2023-07-22T02:13:59;19.60;99.90
12015;DHT22;6066;48.138;16.402;2023-07-22T02:16:28;19.50;99.90
12015;DHT22;6066;48.138;16.402;2023-07-22T02:18:54;19.50;99.90
12015;DHT22;6066;48.138;16.402;2023-07-22T02:21:20;19.50;99.90
12015;DHT22;6066;48.138;16.402;2023-07-22T02:23:46;19.50;99.90
12015;DHT22;6066;48.138;16.402;2023-07-22T02:26:13;19.50;99.90
12015;DHT22;6066;48.138;16.402;2023-07-22T02:28:40;19.50;99.90
12015;DHT22;6066;48.138;16.402;2023-07-22T02:31:08;19.50;99.90
12015;DHT22;6066;48.138;16.402;2023-07-22T02:33:37;19.50;99.90
12015;DHT22;6066;48.138;16.402;2023-07-22T02:36:04;19.40;99.90
12015;DHT22;6066;48.138;16.402;2023-07-22T02:38:31;19.50;99.90
12015;DHT22;6066;48.138;16.402;2023-07-22T02:41:01;19.50;99.90
12015;DHT22;6066;48.138;16.402;2023-07-22T02:43:27;19.40;99.90
12015;DHT22;6066;48.138;16.402;2023-07-22T02:45:54;19.40;99.90
12015;DHT22;6066;48.138;16.402;2023-07-22T02:48:21;19.40;99.90
12015;DHT22;6066;48.138;16.402;2023-07-22T02:50:49;19.30;99.90
12015;DHT22;6066;48.138;16.402;2023-07-22T02:53:15;19.30;99.90
12015;DHT22;6066;48.138;16.402;2023-07-22T02:55:42;19.30;99.90
12015;DHT22;6066;48.138;16.402;2023-07-22T02:58:09;19.30;99.90
12015;DHT22;6066;48.138;16.402;2023-07-22T03:00:37;19.30;99.90
12015;DHT22;6066;48.138;16.402;2023-07-22T03:03:03;19.30;99.90
12015;DHT22;6066;48.138;16.402;2023-07-22T03:05:31;19.30;99.90
12015;DHT22;6066;48.138;16.402;2023-07-22T03:07:59;19.30;99.90
12015;DHT22;6066;48.138;16.402;2023-07-22T03:10:26;19.30;99.90
12015;DHT22;6066;48.138;16.402;2023-07-22T03:12:55;19.30;99.90
12015;DHT22;6066;48.138;16.402;2023-07-22T03:15:21;19.30;99.90
12015;DHT22;6066;48.138;16.402;2023-07-22T03:17:48;19.30;99.90
12015;DHT22;6066;48.138;16.402;2023-07-22T03:20:15;19.20;99.90
12015;DHT22;6066;48.138;16.402;2023-07-22T03:22:44;19.20;99.90
12015;DHT22;6066;48.138;16.402;2023-07-22T03:25:13;19.30;99.90
12015;DHT22;6066;48.138;16.402;2023-07-22T03:27:42;19.20;99.90
12015;DHT22;6066;48.138;16.402;2023-07-22T03:30:11;19.20;99.90
12015;DHT22;6066;48.138;16.402;2023-07-22T03:32:40;19.20;99.90
12015;DHT22;6066;48.138;16.402;2023-07-22T03:35:07;19.20;99.90
12015;DHT22;6066;48.138;16.402;2023-07-22T03:37:35;19.20;99.90
12015;DHT22;6066;48.138;16.402;2023-07-22T03:40:02;19.20;99.90
12015;DHT22;6066;48.138;16.402;2023-07-22T03:42:32;19.20;99.90
12015;DHT22;6066;48.138;16.402;2023-07-22T03:44:58;19.20;99.90
12015;DHT22;6066;48.138;16.402;2023-07-22T03:47:25;19.20;99.90
12015;DHT22;6066;48.138;16.402;2023-07-22T03:49:52;19.20;99.90
12015;DHT22;6066;48.138;16.402;2023-07-22T03:52:18;19.30;99.90
12015;DHT22;6066;48.138;16.402;2023-07-22T03:54:45;19.20;99.90
12015;DHT22;6066;48.138;16.402;2023-07-22T03:57:12;19.30;99.90
12015;DHT22;6066;48.138;16.402;2023-07-22T03:59:40;19.30;99.90
12015;DHT22;6066;48.138;16.402;2023-07-22T04:02:07;19.30;99.90
12015;DHT22;6066;48.138;16.402;2023-07-22T04:04:33;19.30;99.90
12015;DHT22;6066;48.138;16.402;2023-07-22T04:07:00;19.20;99.90
12015;DHT22;6066;48.138;16.402;2023-07-22T04:09:27;19.20;99.90
12015;DHT22;6066;48.138;16.402;2023-07-22T04:11:53;19.20;99.90
12015;DHT22;6066;48.138;16.402;2023-07-22T04:14:20;19.20;99.90
12015;DHT22;6066;48.138;16.402;2023-07-22T04:16:48;19.10;99.90
12015;DHT22;6066;48.138;16.402;2023-07-22T04:19:15;19.10;99.90
12015;DHT22;6066;48.138;16.402;2023-07-22T04:21:43;19.10;99.90
12015;DHT22;6066;48.138;16.402;2023-07-22T04:24:09;19.10;99.90
12015;DHT22;6066;48.138;16.402;2023-07-22T04:26:36;19.10;99.90
12015;DHT22;6066;48.138;16.402;2023-07-22T04:29:03;19.10;99.90
12015;DHT22;6066;48.138;16.402;2023-07-22T04:31:30;19.00;99.90
12015;DHT22;6066;48.138;16.402;2023-07-22T04:33:58;19.00;99.90
12015;DHT22;6066;48.138;16.402;2023-07-22T04:36:25;19.00;99.90
12015;DHT22;6066;48.138;16.402;2023-07-22T04:38:51;19.00;99.90
12015;DHT22;6066;48.138;16.402;2023-07-22T04:41:18;19.00;99.90
12015;DHT22;6066;48.138;16.402;2023-07-22T04:43:45;19.00;99.90
12015;DHT22;6066;48.138;16.402;2023-07-22T04:46:12;19.00;99.90
12015;DHT22;6066;48.138;16.402;2023-07-22T04:48:39;19.10;99.90
12015;DHT22;6066;48.138;16.402;2023-07-22T04:51:07;19.10;99.90
12015;DHT22;6066;48.138;16.402;2023-07-22T04:53:34;19.10;99.90
12015;DHT22;6066;48.138;16.402;2023-07-22T04:56:01;19.10;99.90
12015;DHT22;6066;48.138;16.402;2023-07-22T04:58:28;19.20;99.90
12015;DHT22;6066;48.138;16.402;2023-07-22T05:00:55;19.30;99.90
12015;DHT22;6066;48.138;16.402;2023-07-22T05:03:22;19.30;99.90
12015;DHT22;6066;48.138;16.402;2023-07-22T05:05:50;19.40;99.90
12015;DHT22;6066;48.138;16.402;2023-07-22T05:08:18;19.40;99.90
12015;DHT22;6066;48.138;16.402;2023-07-22T05:10:46;19.40;99.90
12015;DHT22;6066;48.138;16.402;2023-07-22T05:13:12;19.40;99.90
12015;DHT22;6066;48.138;16.402;2023-07-22T05:15:39;19.40;99.90
12015;DHT22;6066;48.138;16.402;2023-07-22T05:18:06;19.50;99.90
12015;DHT22;6066;48.138;16.402;2023-07-22T05:20:33;19.50;99.90
12015;DHT22;6066;48.138;16.402;2023-07-22T05:22:59;19.50;99.90
12015;DHT22;6066;48.138;16.402;2023-07-22T05:25:27;19.50;99.90
12015;DHT22;6066;48.138;16.402;2023-07-22T05:27:54;19.50;99.90
12015;DHT22;6066;48.138;16.402;2023-07-22T05:30:21;19.60;99.90
12015;DHT22;6066;48.138;16.402;2023-07-22T05:32:47;19.60;99.90
12015;DHT22;6066;48.138;16.402;2023-07-22T05:35:14;19.60;99.90
12015;DHT22;6066;48.138;16.402;2023-07-22T05:37:41;19.70;99.90
12015;DHT22;6066;48.138;16.402;2023-07-22T05:40:08;19.70;99.90
12015;DHT22;6066;48.138;16.402;2023-07-22T05:42:36;19.70;99.90
12015;DHT22;6066;48.138;16.402;2023-07-22T05:45:03;19.70;99.90
12015;DHT22;6066;48.138;16.402;2023-07-22T05:47:30;19.80;99.90
12015;DHT22;6066;48.138;16.402;2023-07-22T05:49:56;19.80;99.90
12015;DHT22;6066;48.138;16.402;2023-07-22T05:52:23;19.90;99.90
12015;DHT22;6066;48.138;16.402;2023-07-22T05:54:50;19.90;99.90
12015;DHT22;6066;48.138;16.402;2023-07-22T05:57:16;20.00;99.90
12015;DHT22;6066;48.138;16.402;2023-07-22T05:59:45;20.00;99.90
12015;DHT22;6066;48.138;16.402;2023-07-22T06:02:12;20.00;99.90
12015;DHT22;6066;48.138;16.402;2023-07-22T06:04:39;20.00;99.90
12015;DHT22;6066;48.138;16.402;2023-07-22T06:07:06;20.00;99.90
12015;DHT22;6066;48.138;16.402;2023-07-22T06:09:33;20.10;99.90
12015;DHT22;6066;48.138;16.402;2023-07-22T06:12:00;20.20;99.90
12015;DHT22;6066;48.138;16.402;2023-07-22T06:14:27;20.30;99.90
12015;DHT22;6066;48.138;16.402;2023-07-22T06:16:55;20.40;99.90
12015;DHT22;6066;48.138;16.402;2023-07-22T06:19:22;20.60;99.90
12015;DHT22;6066;48.138;16.402;2023-07-22T06:21:49;20.70;99.90
12015;DHT22;6066;48.138;16.402;2023-07-22T06:24:16;20.80;99.90
12015;DHT22;6066;48.138;16.402;2023-07-22T06:26:43;20.80;99.90
12015;DHT22;6066;48.138;16.402;2023-07-22T06:29:09;20.90;99.90
12015;DHT22;6066;48.138;16.402;2023-07-22T06:31:36;20.90;99.90
12015;DHT22;6066;48.138;16.402;2023-07-22T06:34:04;20.90;99.90
12015;DHT22;6066;48.138;16.402;2023-07-22T06:36:31;20.90;99.90
12015;DHT22;6066;48.138;16.402;2023-07-22T06:38:58;21.00;99.90
12015;DHT22;6066;48.138;16.402;2023-07-22T06:41:24;21.00;99.90
12015;DHT22;6066;48.138;16.402;2023-07-22T06:43:51;21.00;99.90
12015;DHT22;6066;48.138;16.402;2023-07-22T06:46:18;21.10;99.90
12015;DHT22;6066;48.138;16.402;2023-07-22T06:48:46;21.10;99.90
12015;DHT22;6066;48.138;16.402;2023-07-22T06:51:15;21.10;99.90
12015;DHT22;6066;48.138;16.402;2023-07-22T06:53:41;21.20;99.90
12015;DHT22;6066;48.138;16.402;2023-07-22T06:56:08;21.20;99.90
12015;DHT22;6066;48.138;16.402;2023-07-22T06:58:35;21.20;99.90
12015;DHT22;6066;48.138;16.402;2023-07-22T07:01:01;21.30;99.90
12015;DHT22;6066;48.138;16.402;2023-07-22T07:03:29;21.30;99.90
12015;DHT22;6066;48.138;16.402;2023-07-22T07:05:55;21.30;99.90
12015;DHT22;6066;48.138;16.402;2023-07-22T07:08:27;21.40;99.90
12015;DHT22;6066;48.138;16.402;2023-07-22T07:10:53;21.40;99.90
12015;DHT22;6066;48.138;16.402;2023-07-22T07:13:20;21.50;99.90
12015;DHT22;6066;48.138;16.402;2023-07-22T07:15:47;21.50;99.90
12015;DHT22;6066;48.138;16.402;2023-07-22T07:18:15;21.60;99.90
12015;DHT22;6066;48.138;16.402;2023-07-22T07:20:43;21.70;99.90
12015;DHT22;6066;48.138;16.402;2023-07-22T07:23:09;21.80;99.90
12015;DHT22;6066;48.138;16.402;2023-07-22T07:25:38;21.80;99.90
12015;DHT22;6066;48.138;16.402;2023-07-22T07:28:04;21.90;99.90
12015;DHT22;6066;48.138;16.402;2023-07-22T07:30:31;22.00;99.90
12015;DHT22;6066;48.138;16.402;2023-07-22T07:32:58;22.10;99.90
12015;DHT22;6066;48.138;16.402;2023-07-22T07:35:25;22.20;99.90
12015;DHT22;6066;48.138;16.402;2023-07-22T07:37:52;22.20;99.90
12015;DHT22;6066;48.138;16.402;2023-07-22T07:40:18;22.20;99.90
12015;DHT22;6066;48.138;16.402;2023-07-22T07:42:46;22.30;99.90
12015;DHT22;6066;48.138;16.402;2023-07-22T07:45:14;22.30;99.90
12015;DHT22;6066;48.138;16.402;2023-07-22T07:47:40;22.40;99.90
12015;DHT22;6066;48.138;16.402;2023-07-22T07:50:07;22.40;99.90
12015;DHT22;6066;48.138;16.402;2023-07-22T07:52:34;22.40;99.90
12015;DHT22;6066;48.138;16.402;2023-07-22T07:55:01;22.30;99.90
12015;DHT22;6066;48.138;16.402;2023-07-22T07:57:28;22.30;99.90
12015;DHT22;6066;48.138;16.402;2023-07-22T07:59:56;22.40;99.90
12015;DHT22;6066;48.138;16.402;2023-07-22T08:02:22;22.50;99.90
12015;DHT22;6066;48.138;16.402;2023-07-22T08:04:49;22.50;99.90
12015;DHT22;6066;48.138;16.402;2023-07-22T08:07:16;22.50;99.90
12015;DHT22;6066;48.138;16.402;2023-07-22T08:09:43;22.40;99.90
12015;DHT22;6066;48.138;16.402;2023-07-22T08:12:13;22.40;99.90
12015;DHT22;6066;48.138;16.402;2023-07-22T08:14:40;22.40;99.90
12015;DHT22;6066;48.138;16.402;2023-07-22T08:17:08;22.50;99.90
12015;DHT22;6066;48.138;16.402;2023-07-22T08:19:35;22.50;99.90
12015;DHT22;6066;48.138;16.402;2023-07-22T08:22:02;22.50;99.90
12015;DHT22;6066;48.138;16.402;2023-07-22T08:24:29;22.50;99.90
12015;DHT22;6066;48.138;16.402;2023-07-22T08:26:56;22.60;99.90
12015;DHT22;6066;48.138;16.402;2023-07-22T08:29:22;22.60;99.90
12015;DHT22;6066;48.138;16.402;2023-07-22T08:31:49;22.60;99.90
12015;DHT22;6066;48.138;16.402;2023-07-22T08:34:17;22.70;99.90
12015;DHT22;6066;48.138;16.402;2023-07-22T08:36:44;22.60;99.90
12015;DHT22;6066;48.138;16.402;2023-07-22T08:39:10;22.60;99.90
12015;DHT22;6066;48.138;16.402;2023-07-22T08:41:38;22.60;99.90
12015;DHT22;6066;48.138;16.402;2023-07-22T08:44:05;22.60;99.90
12015;DHT22;6066;48.138;16.402;2023-07-22T08:46:34;22.60;99.90
12015;DHT22;6066;48.138;16.402;2023-07-22T08:49:02;22.60;99.90
12015;DHT22;6066;48.138;16.402;2023-07-22T08:51:32;22.60;99.90
12015;DHT22;6066;48.138;16.402;2023-07-22T08:53:59;22.70;99.90
12015;DHT22;6066;48.138;16.402;2023-07-22T08:56:27;22.90;99.90
12015;DHT22;6066;48.138;16.402;2023-07-22T08:58:55;22.90;99.90
12015;DHT22;6066;48.138;16.402;2023-07-22T09:01:22;23.10;99.90
12015;DHT22;6066;48.138;16.402;2023-07-22T09:03:49;23.20;99.90
12015;DHT22;6066;48.138;16.402;2023-07-22T09:06:17;23.40;99.90
12015;DHT22;6066;48.138;16.402;2023-07-22T09:08:46;23.40;99.90
12015;DHT22;6066;48.138;16.402;2023-07-22T09:11:12;23.50;99.90
12015;DHT22;6066;48.138;16.402;2023-07-22T09:13:39;23.40;99.90
12015;DHT22;6066;48.138;16.402;2023-07-22T09:16:06;23.40;99.90
12015;DHT22;6066;48.138;16.402;2023-07-22T09:18:33;23.40;99.90
12015;DHT22;6066;48.138;16.402;2023-07-22T09:21:00;23.40;99.90
12015;DHT22;6066;48.138;16.402;2023-07-22T09:23:33;23.40;99.90
12015;DHT22;6066;48.138;16.402;2023-07-22T09:26:10;23.60;99.90
12015;DHT22;6066;48.138;16.402;2023-07-22T09:28:47;23.90;99.90
12015;DHT22;6066;48.138;16.402;2023-07-22T09:31:14;24.30;99.90
12015;DHT22;6066;48.138;16.402;2023-07-22T09:33:40;24.60;99.90
12015;DHT22;6066;48.138;16.402;2023-07-22T09:36:09;24.80;99.90
12015;DHT22;6066;48.138;16.402;2023-07-22T09:38:36;24.90;99.90
12015;DHT22;6066;48.138;16.402;2023-07-22T09:41:02;24.90;99.90
12015;DHT22;6066;48.138;16.402;2023-07-22T09:43:31;25.10;99.90
12015;DHT22;6066;48.138;16.402;2023-07-22T09:46:05;25.30;99.90
12015;DHT22;6066;48.138;16.402;2023-07-22T09:48:38;25.50;99.90
12015;DHT22;6066;48.138;16.402;2023-07-22T09:51:05;25.60;99.90
12015;DHT22;6066;48.138;16.402;2023-07-22T09:53:32;25.70;99.90
12015;DHT22;6066;48.138;16.402;2023-07-22T09:56:02;25.70;99.90
12015;DHT22;6066;48.138;16.402;2023-07-22T09:58:29;25.70;99.90
12015;DHT22;6066;48.138;16.402;2023-07-22T10:00:58;25.60;99.90
12015;DHT22;6066;48.138;16.402;2023-07-22T10:03:26;25.50;99.90
12015;DHT22;6066;48.138;16.402;2023-07-22T10:05:55;25.40;99.90
12015;DHT22;6066;48.138;16.402;2023-07-22T10:08:22;25.30;99.90
12015;DHT22;6066;48.138;16.402;2023-07-22T10:10:51;25.40;99.90
12015;DHT22;6066;48.138;16.402;2023-07-22T10:13:19;25.50;99.90
12015;DHT22;6066;48.138;16.402;2023-07-22T10:15:47;25.30;99.90
12015;DHT22;6066;48.138;16.402;2023-07-22T10:18:15;25.20;99.90
12015;DHT22;6066;48.138;16.402;2023-07-22T10:20:43;25.30;99.90
12015;DHT22;6066;48.138;16.402;2023-07-22T10:23:10;25.50;99.90
12015;DHT22;6066;48.138;16.402;2023-07-22T10:25:39;25.70;99.90
12015;DHT22;6066;48.138;16.402;2023-07-22T10:28:06;25.90;99.90
12015;DHT22;6066;48.138;16.402;2023-07-22T10:30:33;26.20;99.90
12015;DHT22;6066;48.138;16.402;2023-07-22T10:32:59;26.40;99.90
12015;DHT22;6066;48.138;16.402;2023-07-22T10:35:42;26.40;99.90
12015;DHT22;6066;48.138;16.402;2023-07-22T10:38:10;26.60;99.90
12015;DHT22;6066;48.138;16.402;2023-07-22T10:40:47;26.70;99.90
12015;DHT22;6066;48.138;16.402;2023-07-22T10:43:16;26.90;99.90
12015;DHT22;6066;48.138;16.402;2023-07-22T10:45:48;26.80;99.70
12015;DHT22;6066;48.138;16.402;2023-07-22T10:48:15;26.80;99.90
12015;DHT22;6066;48.138;16.402;2023-07-22T10:50:44;26.80;99.90
12015;DHT22;6066;48.138;16.402;2023-07-22T10:53:12;27.00;99.70
12015;DHT22;6066;48.138;16.402;2023-07-22T10:58:24;26.70;99.90
12015;DHT22;6066;48.138;16.402;2023-07-22T11:00:51;26.70;99.90
12015;DHT22;6066;48.138;16.402;2023-07-22T11:03:18;26.70;99.90
12015;DHT22;6066;48.138;16.402;2023-07-22T11:05:48;26.70;99.90
12015;DHT22;6066;48.138;16.402;2023-07-22T11:08:15;26.70;98.90
12015;DHT22;6066;48.138;16.402;2023-07-22T11:10:52;27.00;97.10
12015;DHT22;6066;48.138;16.402;2023-07-22T11:13:18;27.10;98.90
12015;DHT22;6066;48.138;16.402;2023-07-22T11:15:52;27.20;99.90
12015;DHT22;6066;48.138;16.402;2023-07-22T11:18:21;27.40;98.60
12015;DHT22;6066;48.138;16.402;2023-07-22T11:20:53;27.50;99.30
12015;DHT22;6066;48.138;16.402;2023-07-22T11:23:20;27.60;97.90
12015;DHT22;6066;48.138;16.402;2023-07-22T11:25:46;27.50;99.10
12015;DHT22;6066;48.138;16.402;2023-07-22T11:28:13;27.50;99.80
12015;DHT22;6066;48.138;16.402;2023-07-22T11:30:40;27.50;99.50
12015;DHT22;6066;48.138;16.402;2023-07-22T11:33:08;27.50;99.90
12015;DHT22;6066;48.138;16.402;2023-07-22T11:35:35;27.40;98.90
12015;DHT22;6066;48.138;16.402;2023-07-22T11:38:04;27.40;99.50
12015;DHT22;6066;48.138;16.402;2023-07-22T11:40:32;27.40;98.70
12015;DHT22;6066;48.138;16.402;2023-07-22T11:42:59;27.50;99.90
12015;DHT22;6066;48.138;16.402;2023-07-22T11:45:26;27.70;99.90
12015;DHT22;6066;48.138;16.402;2023-07-22T11:47:52;27.80;99.90
12015;DHT22;6066;48.138;16.402;2023-07-22T11:50:20;27.80;97.10
12015;DHT22;6066;48.138;16.402;2023-07-22T11:52:57;27.70;97.30
12015;DHT22;6066;48.138;16.402;2023-07-22T11:55:28;27.50;98.60
12015;DHT22;6066;48.138;16.402;2023-07-22T11:57:54;27.40;98.60
12015;DHT22;6066;48.138;16.402;2023-07-22T12:00:21;27.40;99.90
12015;DHT22;6066;48.138;16.402;2023-07-22T12:02:48;27.60;99.60
12015;DHT22;6066;48.138;16.402;2023-07-22T12:05:20;27.70;98.60
12015;DHT22;6066;48.138;16.402;2023-07-22T12:07:47;27.80;98.10
12015;DHT22;6066;48.138;16.402;2023-07-22T12:10:15;28.00;99.60
12015;DHT22;6066;48.138;16.402;2023-07-22T12:12:44;28.30;98.20
12015;DHT22;6066;48.138;16.402;2023-07-22T12:15:11;28.50;97.60
12015;DHT22;6066;48.138;16.402;2023-07-22T12:17:44;28.50;97.20
12015;DHT22;6066;48.138;16.402;2023-07-22T12:20:11;28.50;97.40
12015;DHT22;6066;48.138;16.402;2023-07-22T12:22:38;28.60;98.50
12015;DHT22;6066;48.138;16.402;2023-07-22T12:25:05;28.80;98.00
12015;DHT22;6066;48.138;16.402;2023-07-22T12:27:32;28.70;97.50
12015;DHT22;6066;48.138;16.402;2023-07-22T12:30:00;28.70;94.80
12015;DHT22;6066;48.138;16.402;2023-07-22T12:32:28;28.60;95.30
12015;DHT22;6066;48.138;16.402;2023-07-22T12:34:55;28.30;93.80
12015;DHT22;6066;48.138;16.402;2023-07-22T12:37:21;28.10;95.40
12015;DHT22;6066;48.138;16.402;2023-07-22T12:39:48;27.90;94.60
12015;DHT22;6066;48.138;16.402;2023-07-22T12:42:15;27.70;94.70
12015;DHT22;6066;48.138;16.402;2023-07-22T12:44:41;27.50;94.60
12015;DHT22;6066;48.138;16.402;2023-07-22T12:47:09;27.40;94.60
12015;DHT22;6066;48.138;16.402;2023-07-22T12:49:36;27.40;94.80
12015;DHT22;6066;48.138;16.402;2023-07-22T12:52:03;27.50;95.50
12015;DHT22;6066;48.138;16.402;2023-07-22T12:54:34;27.50;96.90
12015;DHT22;6066;48.138;16.402;2023-07-22T12:57:00;27.40;95.40
12015;DHT22;6066;48.138;16.402;2023-07-22T12:59:27;27.70;98.90
12015;DHT22;6066;48.138;16.402;2023-07-22T13:01:54;27.80;98.40
12015;DHT22;6066;48.138;16.402;2023-07-22T13:04:22;28.20;94.50
12015;DHT22;6066;48.138;16.402;2023-07-22T13:06:49;28.40;94.90
12015;DHT22;6066;48.138;16.402;2023-07-22T13:09:17;28.60;94.80
12015;DHT22;6066;48.138;16.402;2023-07-22T13:11:43;28.60;92.60
12015;DHT22;6066;48.138;16.402;2023-07-22T13:14:10;28.60;92.80
12015;DHT22;6066;48.138;16.402;2023-07-22T13:16:37;28.50;92.80
12015;DHT22;6066;48.138;16.402;2023-07-22T13:19:03;28.20;92.40
12015;DHT22;6066;48.138;16.402;2023-07-22T13:21:31;28.10;93.40
12015;DHT22;6066;48.138;16.402;2023-07-22T13:23:58;28.20;92.90
12015;DHT22;6066;48.138;16.402;2023-07-22T13:26:25;28.40;92.80
12015;DHT22;6066;48.138;16.402;2023-07-22T13:28:51;28.40;91.70
12015;DHT22;6066;48.138;16.402;2023-07-22T13:31:19;28.30;91.20
12015;DHT22;6066;48.138;16.402;2023-07-22T13:33:45;28.20;91.30
12015;DHT22;6066;48.138;16.402;2023-07-22T13:36:12;28.00;91.30
12015;DHT22;6066;48.138;16.402;2023-07-22T13:38:41;27.90;92.50
12015;DHT22;6066;48.138;16.402;2023-07-22T13:41:08;28.10;92.80
12015;DHT22;6066;48.138;16.402;2023-07-22T13:43:35;28.40;92.70
12015;DHT22;6066;48.138;16.402;2023-07-22T13:46:01;28.60;90.40
12015;DHT22;6066;48.138;16.402;2023-07-22T13:48:28;28.70;90.00
12015;DHT22;6066;48.138;16.402;2023-07-22T13:50:55;28.60;90.10
12015;DHT22;6066;48.138;16.402;2023-07-22T13:53:22;28.40;90.60
12015;DHT22;6066;48.138;16.402;2023-07-22T13:55:50;28.10;90.90
12015;DHT22;6066;48.138;16.402;2023-07-22T13:58:17;27.80;91.60
12015;DHT22;6066;48.138;16.402;2023-07-22T14:00:43;27.70;92.80
12015;DHT22;6066;48.138;16.402;2023-07-22T14:03:10;27.70;92.90
12015;DHT22;6066;48.138;16.402;2023-07-22T14:05:37;27.80;93.00
12015;DHT22;6066;48.138;16.402;2023-07-22T14:08:03;27.80;92.00
12015;DHT22;6066;48.138;16.402;2023-07-22T14:10:30;27.70;92.20
12015;DHT22;6066;48.138;16.402;2023-07-22T14:12:58;27.60;92.30
12015;DHT22;6066;48.138;16.402;2023-07-22T14:15:25;27.40;92.80
12015;DHT22;6066;48.138;16.402;2023-07-22T14:17:52;27.30;92.80
12015;DHT22;6066;48.138;16.402;2023-07-22T14:20:18;27.40;93.20
12015;DHT22;6066;48.138;16.402;2023-07-22T14:22:45;27.50;94.80
12015;DHT22;6066;48.138;16.402;2023-07-22T14:25:15;27.50;94.20
12015;DHT22;6066;48.138;16.402;2023-07-22T14:27:41;27.50;95.90
12015;DHT22;6066;48.138;16.402;2023-07-22T14:30:10;27.50;95.80
12015;DHT22;6066;48.138;16.402;2023-07-22T14:32:36;27.70;94.10
12015;DHT22;6066;48.138;16.402;2023-07-22T14:35:03;27.70;93.30
12015;DHT22;6066;48.138;16.402;2023-07-22T14:37:30;27.60;93.70
12015;DHT22;6066;48.138;16.402;2023-07-22T14:39:57;27.40;93.20
12015;DHT22;6066;48.138;16.402;2023-07-22T14:42:24;27.30;93.00
12015;DHT22;6066;48.138;16.402;2023-07-22T14:44:50;27.20;93.10
12015;DHT22;6066;48.138;16.402;2023-07-22T14:47:18;27.00;93.60
12015;DHT22;6066;48.138;16.402;2023-07-22T14:49:45;26.90;92.90
12015;DHT22;6066;48.138;16.402;2023-07-22T14:52:12;26.90;93.40
12015;DHT22;6066;48.138;16.402;2023-07-22T14:54:38;27.10;94.30
12015;DHT22;6066;48.138;16.402;2023-07-22T14:57:05;27.20;93.00
12015;DHT22;6066;48.138;16.402;2023-07-22T14:59:32;27.20;93.90
12015;DHT22;6066;48.138;16.402;2023-07-22T15:01:59;27.20;93.80
12015;DHT22;6066;48.138;16.402;2023-07-22T15:04:27;27.20;93.30
12015;DHT22;6066;48.138;16.402;2023-07-22T15:06:53;27.10;93.70
12015;DHT22;6066;48.138;16.402;2023-07-22T15:09:20;27.20;93.00
12015;DHT22;6066;48.138;16.402;2023-07-22T15:11:47;27.30;93.80
12015;DHT22;6066;48.138;16.402;2023-07-22T15:14:13;27.40;92.90
12015;DHT22;6066;48.138;16.402;2023-07-22T15:16:40;27.40;94.20
12015;DHT22;6066;48.138;16.402;2023-07-22T15:19:07;27.40;93.80
12015;DHT22;6066;48.138;16.402;2023-07-22T15:21:35;27.30;93.80
12015;DHT22;6066;48.138;16.402;2023-07-22T15:24:02;27.20;94.10
12015;DHT22;6066;48.138;16.402;2023-07-22T15:26:29;27.20;94.70
12015;DHT22;6066;48.138;16.402;2023-07-22T15:28:55;27.10;94.50
12015;DHT22;6066;48.138;16.402;2023-07-22T15:31:22;27.10;94.50
12015;DHT22;6066;48.138;16.402;2023-07-22T15:33:49;27.00;94.80